Time;durP1;ratioP1;P1;durP2;ratioP2;P2;SDS_P1;SDS_P2;PMS_P1;PMS_P2;Temp;Humidity;BMP_temperature;BMP_pressure;BME280_temperature;BME280_humidity;BME280_pressure;Samples;Min_cycle;Max_cycle;Signal;HPM_P1;HPM_P2
2022/01/22 00:01:47;;;;;;;6.53;1.65;;;6.50;99.90;;;;;;4968566;28;20051;-79
2022/01/22 00:04:13;;;;;;;0.63;0.63;;;6.40;99.90;;;;;;4987064;28;20142;-80
2022/01/22 00:06:39;;;;;;;4.00;2.13;;;6.50;99.90;;;;;;5036494;28;20103;-81
2022/01/22 00:09:05;;;;;;;4.57;1.13;;;6.40;99.90;;;;;;4974746;28;20047;-80
2022/01/22 00:11:37;;;;;;;1.90;1.02;;;6.40;99.90;;;;;;4977921;28;20122;-79
2022/01/22 00:16:48;;;;;;;2.53;1.50;;;6.40;99.90;;;;;;4994439;28;20520;-80
2022/01/22 00:19:14;;;;;;;1.77;0.95;;;6.40;99.90;;;;;;4965581;28;20051;-82
2022/01/22 00:21:40;;;;;;;;;;;6.40;99.90;;;;;;4953555;28;20484;-81
2022/01/22 00:24:09;;;;;;;1.40;1.20;;;6.40;99.90;;;;;;4984848;28;19929;-80
2022/01/22 00:26:35;;;;;;;5.50;0.95;;;6.40;99.90;;;;;;4984952;28;20499;-80
2022/01/22 00:29:00;;;;;;;1.15;1.05;;;6.40;99.90;;;;;;4969269;28;20094;-81
2022/01/22 00:31:26;;;;;;;1.88;1.10;;;6.40;99.90;;;;;;4951456;28;20055;-81
2022/01/22 00:33:52;;;;;;;1.75;1.08;;;6.40;99.90;;;;;;4974078;28;20070;-79
2022/01/22 00:36:18;;;;;;;3.40;1.13;;;6.40;99.90;;;;;;4974138;28;20125;-81
2022/01/22 00:38:43;;;;;;;1.65;1.05;;;6.40;99.90;;;;;;4969390;28;20038;-83
2022/01/22 00:41:09;;;;;;;7.82;1.02;;;6.30;99.90;;;;;;4970054;28;20042;-80
2022/01/22 00:43:35;;;;;;;0.68;0.68;;;6.40;99.90;;;;;;4953611;28;20092;-82
2022/01/22 00:46:01;;;;;;;1.85;1.25;;;6.40;99.90;;;;;;4968410;28;20404;-81
2022/01/22 00:48:27;;;;;;;3.75;1.23;;;6.30;99.90;;;;;;5037121;28;20070;-81
2022/01/22 00:50:55;;;;;;;1.17;1.10;;;6.30;99.90;;;;;;4968723;28;20063;-82
2022/01/22 00:53:22;;;;;;;4.03;1.15;;;6.40;99.90;;;;;;5049215;28;20055;-83
2022/01/22 00:55:47;;;;;;;;;;;6.40;99.90;;;;;;4969915;28;20050;-82
2022/01/22 00:58:14;;;;;;;2.08;1.13;;;6.40;99.90;;;;;;4972493;28;19918;-81
2022/01/22 01:00:40;;;;;;;3.05;1.63;;;6.40;99.90;;;;;;5006251;28;20043;-81
2022/01/22 01:03:05;;;;;;;1.92;1.70;;;6.40;99.90;;;;;;4970823;28;20047;-80
2022/01/22 01:05:31;;;;;;;2.72;1.60;;;6.40;99.90;;;;;;4972523;28;20031;-81
2022/01/22 01:07:57;;;;;;;1.10;0.88;;;6.40;99.90;;;;;;4987421;28;20505;-80
2022/01/22 01:10:23;;;;;;;2.75;1.60;;;6.60;99.90;;;;;;4970915;28;20050;-82
2022/01/22 01:12:50;;;;;;;2.72;1.13;;;6.40;99.90;;;;;;5002895;28;20062;-85
2022/01/22 01:34:19;;;;;;;1.67;1.33;;;6.40;99.90;;;;;;5000432;28;20423;-82
2022/01/22 01:36:46;;;;;;;1.77;1.27;;;6.40;99.90;;;;;;5003513;28;20098;-80
2022/01/22 01:39:16;;;;;;;8.50;0.75;;;6.40;99.90;;;;;;5055490;28;20100;-84
2022/01/22 01:44:17;;;;;;;0.68;0.60;;;6.40;99.90;;;;;;4965321;28;20538;-82
2022/01/22 01:46:45;;;;;;;0.50;0.50;;;6.40;99.90;;;;;;4970780;28;20055;-81
2022/01/22 01:49:12;;;;;;;1.85;0.70;;;6.40;99.90;;;;;;4969666;28;20042;-78
2022/01/22 01:51:38;;;;;;;1.15;1.05;;;6.30;99.90;;;;;;5055444;28;20053;-79
2022/01/22 01:59:49;;;;;;;0.60;0.60;;;6.30;99.90;;;;;;4999709;28;20208;-80
2022/01/22 02:02:15;;;;;;;8.13;1.23;;;6.30;99.90;;;;;;4970420;28;20035;-80
2022/01/22 02:04:41;;;;;;;1.85;0.93;;;6.30;99.90;;;;;;4973053;28;20553;-79
2022/01/22 02:07:07;;;;;;;0.60;0.60;;;6.20;99.90;;;;;;4970208;28;20384;-82
2022/01/22 02:09:34;;;;;;;2.92;1.25;;;6.20;99.90;;;;;;4973395;28;20042;-79
2022/01/22 02:12:06;;;;;;;1.58;0.88;;;6.20;99.90;;;;;;5000977;28;20047;-79
2022/01/22 02:25:28;;;;;;;2.72;0.90;;;6.10;99.90;;;;;;4970015;28;20057;-80
2022/01/22 02:27:54;;;;;;;6.60;1.10;;;6.10;99.90;;;;;;4970667;28;20058;-80
2022/01/22 02:30:24;;;;;;;2.33;1.52;;;6.20;99.90;;;;;;5029611;28;20054;-79
2022/01/22 02:33:23;;;;;;;0.93;0.90;;;6.00;99.90;;;;;;4997879;28;20069;-80
2022/01/22 02:35:57;;;;;;;2.35;0.82;;;6.20;99.90;;;;;;5048372;28;20064;-81
2022/01/22 02:39:12;;;;;;;1.02;0.75;;;6.10;99.90;;;;;;4970657;28;20058;-81
2022/01/22 02:41:17;;;;;;;3.25;1.70;;;6.20;99.90;;;;;;4979715;28;20711;-81
2022/01/22 02:43:42;;;;;;;1.00;0.88;;;6.20;99.90;;;;;;4954320;28;20043;-79
2022/01/22 02:46:09;;;;;;;5.15;1.70;;;6.10;99.90;;;;;;4969079;28;20047;-81
2022/01/22 02:48:35;;;;;;;5.50;1.10;;;6.10;99.90;;;;;;4978987;28;20051;-80
2022/01/22 02:51:00;;;;;;;0.70;0.70;;;6.10;99.90;;;;;;4983760;28;20043;-78
2022/01/22 02:53:27;;;;;;;1.27;0.70;;;6.10;99.90;;;;;;4969453;28;20053;-80
2022/01/22 02:55:54;;;;;;;1.67;1.58;;;6.00;99.90;;;;;;4989551;28;20112;-81
2022/01/22 02:58:20;;;;;;;0.73;0.73;;;6.00;99.90;;;;;;5009751;28;20048;-80
2022/01/22 03:00:45;;;;;;;3.10;1.23;;;6.00;99.90;;;;;;4980305;28;20121;-81
2022/01/22 03:03:11;;;;;;;1.15;1.05;;;6.00;99.90;;;;;;4973682;28;20047;-83
2022/01/22 03:05:37;;;;;;;1.02;0.98;;;6.00;99.90;;;;;;4966127;28;20384;-80
2022/01/22 03:08:07;;;;;;;3.28;2.22;;;6.10;99.90;;;;;;4973717;28;20615;-81
2022/01/22 03:10:33;;;;;;;1.63;1.02;;;6.10;99.90;;;;;;4972406;28;20126;-80
2022/01/22 03:15:47;;;;;;;0.80;0.80;;;6.10;99.90;;;;;;4988153;28;20100;-80
2022/01/22 03:18:33;;;;;;;0.80;0.80;;;6.00;99.90;;;;;;4960353;28;20069;-79
2022/01/22 03:29:19;;;;;;;2.17;1.10;;;6.10;99.90;;;;;;4987268;28;20039;-79
2022/01/22 03:31:42;;;;;;;1.67;0.90;;;6.40;99.90;;;;;;4965463;28;20053;-81
2022/01/22 03:34:08;;;;;;;6.13;0.98;;;6.10;99.90;;;;;;4951529;28;20046;-81
2022/01/22 03:36:34;;;;;;;2.05;1.33;;;6.20;99.90;;;;;;4965907;28;20050;-80
2022/01/22 03:39:03;;;;;;;1.13;1.02;;;6.10;99.90;;;;;;5045469;28;20038;-80
2022/01/22 03:41:29;;;;;;;0.80;0.80;;;6.20;99.90;;;;;;4961634;28;20046;-80
2022/01/22 03:43:55;;;;;;;0.82;0.82;;;6.10;99.90;;;;;;4968949;28;20396;-79
2022/01/22 03:46:21;;;;;;;0.82;0.80;;;6.20;99.90;;;;;;4968655;28;20062;-81
2022/01/22 03:48:47;;;;;;;;;;;6.10;99.90;;;;;;4968670;28;20046;-81
2022/01/22 03:51:13;;;;;;;3.13;0.93;;;6.10;99.90;;;;;;4967687;28;20023;-81
2022/01/22 03:53:39;;;;;;;4.60;0.82;;;6.20;99.90;;;;;;5002331;28;20043;-80
2022/01/22 03:56:06;;;;;;;3.90;0.80;;;6.10;99.90;;;;;;5000212;28;20134;-80
2022/01/22 03:58:35;;;;;;;1.08;0.82;;;6.20;99.90;;;;;;4986235;28;20039;-82
2022/01/22 04:03:41;;;;;;;1.10;0.93;;;6.10;99.90;;;;;;4968043;28;20063;-79
2022/01/22 04:08:52;;;;;;;6.53;1.10;;;6.40;99.90;;;;;;4993090;28;20600;-82
2022/01/22 04:11:18;;;;;;;2.85;0.98;;;6.10;99.90;;;;;;4973005;28;20051;-82
2022/01/22 04:13:46;;;;;;;0.80;0.80;;;6.10;99.90;;;;;;4995881;28;20094;-80
2022/01/22 04:16:14;;;;;;;5.43;1.02;;;6.10;99.90;;;;;;4972343;28;20055;-81
2022/01/22 04:26:54;;;;;;;1.88;1.30;;;6.10;99.90;;;;;;5046862;28;20074;-81
2022/01/22 04:29:22;;;;;;;0.90;0.90;;;6.10;99.90;;;;;;4999712;28;20051;-78
2022/01/22 04:31:47;;;;;;;1.13;1.02;;;6.10;99.90;;;;;;5000879;28;20047;-81
2022/01/22 04:34:13;;;;;;;2.88;0.70;;;6.00;99.90;;;;;;4952195;28;20152;-82
2022/01/22 04:36:39;;;;;;;0.75;0.75;;;6.10;99.90;;;;;;4969063;28;20047;-80
2022/01/22 04:39:05;;;;;;;;;;;6.10;99.90;;;;;;4998891;28;20107;-80
2022/01/22 04:41:31;;;;;;;0.85;0.85;;;6.10;99.90;;;;;;4967546;28;20379;-81
2022/01/22 04:44:01;;;;;;;3.42;1.08;;;6.10;99.90;;;;;;4971743;28;20116;-81
2022/01/22 04:46:49;;;;;;;0.85;0.85;;;6.10;99.90;;;;;;5004358;28;20442;-83
2022/01/22 04:52:34;;;;;;;0.82;0.77;;;6.10;99.90;;;;;;4971267;28;20362;-80
2022/01/22 04:55:00;;;;;;;0.73;0.73;;;6.20;99.90;;;;;;5053478;28;20104;-79
2022/01/22 04:57:44;;;;;;;0.77;0.77;;;6.00;99.90;;;;;;4971239;28;20055;-81
2022/01/22 05:00:13;;;;;;;0.85;0.85;;;6.10;99.90;;;;;;4972165;28;20057;-81
2022/01/22 05:02:39;;;;;;;0.77;0.77;;;6.10;99.90;;;;;;5055323;28;20098;-79
2022/01/22 05:05:06;;;;;;;1.65;1.15;;;6.10;99.90;;;;;;4998390;28;20118;-80
2022/01/22 05:07:32;;;;;;;0.82;0.82;;;6.10;99.90;;;;;;4970726;28;20051;-80
2022/01/22 05:09:58;;;;;;;1.38;1.13;;;6.10;99.90;;;;;;5001123;28;20051;-80
2022/01/22 05:12:24;;;;;;;2.47;0.93;;;6.10;99.90;;;;;;4993209;28;20384;-81
2022/01/22 05:14:50;;;;;;;;;;;6.10;99.90;;;;;;4991095;28;20062;-82
2022/01/22 05:17:18;;;;;;;6.00;1.25;;;6.10;99.90;;;;;;5004200;28;19926;-79
2022/01/22 05:19:50;;;;;;;4.53;0.75;;;6.10;99.90;;;;;;4970502;28;20448;-81
2022/01/22 05:25:05;;;;;;;0.70;0.70;;;6.10;99.90;;;;;;5002349;28;20047;-79
2022/01/22 05:38:03;;;;;;;0.68;0.68;;;6.10;99.90;;;;;;4984192;28;20076;-80
2022/01/22 05:40:30;;;;;;;1.65;0.80;;;6.10;99.90;;;;;;5002006;28;20045;-81
2022/01/22 05:42:56;;;;;;;2.63;1.13;;;6.10;99.90;;;;;;5002149;28;20387;-80
2022/01/22 05:45:21;;;;;;;;;;;6.10;99.90;;;;;;4995927;28;20342;-78
2022/01/22 05:47:47;;;;;;;0.70;0.70;;;6.10;99.90;;;;;;4967659;28;19925;-82
2022/01/22 05:50:26;;;;;;;0.70;0.70;;;6.10;99.90;;;;;;4970498;28;20042;-82
2022/01/22 05:53:02;;;;;;;0.70;0.70;;;6.10;99.90;;;;;;5002824;28;20079;-81
2022/01/22 05:59:35;;;;;;;6.53;0.85;;;6.00;99.90;;;;;;4969910;28;20062;-81
2022/01/22 06:01:13;;;;;;;0.60;0.60;;;6.00;99.90;;;;;;5000077;28;20055;-80
2022/01/22 06:03:39;;;;;;;0.85;0.85;;;6.00;99.90;;;;;;5005922;28;20050;-80
2022/01/22 06:06:05;;;;;;;;;;;6.00;99.90;;;;;;4988068;28;20043;-80
2022/01/22 06:08:33;;;;;;;1.10;1.00;;;6.00;99.90;;;;;;5002450;28;20009;-83
2022/01/22 06:11:07;;;;;;;1.00;1.00;;;6.10;99.90;;;;;;4970031;28;20070;-79
2022/01/22 06:13:43;;;;;;;0.93;0.88;;;6.00;99.90;;;;;;4954512;28;20053;-80
2022/01/22 06:16:10;;;;;;;;;;;6.00;99.90;;;;;;4971966;28;20035;-80
2022/01/22 06:18:35;;;;;;;1.15;0.82;;;6.00;99.90;;;;;;4984214;28;20001;-81
2022/01/22 06:21:01;;;;;;;2.55;1.02;;;6.00;99.90;;;;;;4983623;28;20139;-81
2022/01/22 06:23:27;;;;;;;0.82;0.82;;;6.10;99.90;;;;;;4969506;28;20104;-81
2022/01/22 06:25:52;;;;;;;1.13;0.98;;;6.10;99.90;;;;;;4968918;28;20047;-82
2022/01/22 06:28:18;;;;;;;0.65;0.65;;;6.10;99.90;;;;;;4974160;28;20043;-79
2022/01/22 06:30:46;;;;;;;2.67;1.33;;;6.10;99.90;;;;;;4969834;28;20046;-82
2022/01/22 06:33:12;;;;;;;3.40;1.30;;;6.10;99.90;;;;;;4976998;28;20107;-82
2022/01/22 06:35:37;;;;;;;0.85;0.85;;;6.10;99.90;;;;;;4967393;28;20051;-80
2022/01/22 06:38:06;;;;;;;1.63;1.00;;;6.10;99.90;;;;;;4970392;28;20077;-80
2022/01/22 06:42:57;;;;;;;1.30;0.90;;;6.10;99.90;;;;;;5038086;28;20046;-83
2022/01/22 06:45:23;;;;;;;0.65;0.65;;;6.10;99.90;;;;;;4984987;28;20043;-86
2022/01/22 06:47:48;;;;;;;4.47;1.58;;;6.00;99.90;;;;;;4986099;28;20047;-80
2022/01/22 06:50:14;;;;;;;5.00;1.80;;;5.80;99.90;;;;;;4970617;28;20092;-83
2022/01/22 06:52:41;;;;;;;1.23;1.13;;;5.90;99.90;;;;;;4953431;28;20042;-83
2022/01/22 06:55:07;;;;;;;0.93;0.80;;;6.00;99.90;;;;;;5001648;28;20050;-81
2022/01/22 06:57:33;;;;;;;;;;;5.90;99.90;;;;;;5002280;28;20135;-82
2022/01/22 06:59:58;;;;;;;1.15;1.05;;;5.90;99.90;;;;;;4993875;28;19961;-83
2022/01/22 07:02:24;;;;;;;2.22;0.95;;;5.90;99.90;;;;;;5064042;28;20052;-81
2022/01/22 07:04:50;;;;;;;1.42;1.30;;;5.90;99.90;;;;;;4953128;28;20503;-83
2022/01/22 07:07:16;;;;;;;1.60;0.93;;;5.90;99.90;;;;;;5037067;28;20160;-82
2022/01/22 07:09:41;;;;;;;3.03;1.00;;;6.00;99.90;;;;;;5054032;28;20042;-82
2022/01/22 07:12:08;;;;;;;6.75;1.38;;;5.90;99.90;;;;;;4960436;28;20117;-85
2022/01/22 07:14:34;;;;;;;4.20;1.00;;;5.80;99.90;;;;;;4967937;28;20530;-82
2022/01/22 07:17:00;;;;;;;1.65;0.95;;;5.80;99.90;;;;;;4967566;28;20147;-82
2022/01/22 07:19:25;;;;;;;1.13;0.90;;;6.20;99.90;;;;;;4977106;28;20066;-84
2022/01/22 07:22:04;;;;;;;1.08;1.00;;;5.80;99.90;;;;;;5005342;28;20052;-83
2022/01/22 07:24:36;;;;;;;1.77;0.90;;;6.40;99.90;;;;;;4970020;28;20508;-82
2022/01/22 07:27:02;;;;;;;3.50;1.65;;;6.20;99.90;;;;;;4969471;28;20055;-84
2022/01/22 07:29:28;;;;;;;2.75;0.93;;;5.90;99.90;;;;;;4968494;28;20058;-81
2022/01/22 07:31:54;;;;;;;1.63;1.05;;;5.80;99.90;;;;;;4996071;28;20051;-82
2022/01/22 07:34:19;;;;;;;1.42;1.02;;;5.50;99.90;;;;;;4968828;28;20121;-83
2022/01/22 07:36:45;;;;;;;1.35;1.25;;;5.80;99.90;;;;;;4984615;28;20411;-83
2022/01/22 07:39:11;;;;;;;0.90;0.90;;;5.80;99.90;;;;;;5036670;28;20042;-83
2022/01/22 07:41:37;;;;;;;2.80;1.15;;;5.80;99.90;;;;;;4970144;28;20042;-82
2022/01/22 07:44:03;;;;;;;2.83;1.33;;;5.70;99.90;;;;;;4980249;28;20039;-81
2022/01/22 07:46:29;;;;;;;0.90;0.90;;;5.80;99.90;;;;;;5067029;28;20055;-83
2022/01/22 07:48:55;;;;;;;1.00;0.90;;;6.00;99.90;;;;;;4985219;28;20077;-81
2022/01/22 07:51:21;;;;;;;1.42;1.33;;;5.80;99.90;;;;;;4974197;28;20133;-81
2022/01/22 07:53:46;;;;;;;0.55;0.55;;;5.30;99.90;;;;;;5061948;28;20050;-84
2022/01/22 07:56:13;;;;;;;0.75;0.75;;;5.70;99.90;;;;;;5037742;28;20049;-82
2022/01/22 07:58:39;;;;;;;0.93;0.93;;;5.70;99.90;;;;;;4976728;28;20054;-80
2022/01/22 08:01:05;;;;;;;0.70;0.70;;;5.70;99.90;;;;;;4985343;28;20050;-80
2022/01/22 08:03:31;;;;;;;0.95;0.95;;;5.90;99.90;;;;;;4965007;28;20043;-82
2022/01/22 08:05:57;;;;;;;0.60;0.60;;;6.00;99.90;;;;;;4974819;28;20047;-83
2022/01/22 08:08:22;;;;;;;3.80;0.98;;;5.70;99.90;;;;;;4978264;28;20035;-84
2022/01/22 08:10:48;;;;;;;0.95;0.85;;;5.70;99.90;;;;;;4971965;28;20051;-83
2022/01/22 08:13:14;;;;;;;1.60;0.90;;;6.00;99.90;;;;;;4993828;28;20039;-81
2022/01/22 08:15:40;;;;;;;3.40;1.05;;;5.80;99.90;;;;;;4985218;28;20488;-84
2022/01/22 08:18:07;;;;;;;0.70;0.70;;;6.30;99.90;;;;;;4984186;28;20119;-82
2022/01/22 08:20:34;;;;;;;1.10;1.00;;;5.80;99.90;;;;;;4995274;28;20063;-84
2022/01/22 08:22:59;;;;;;;1.27;1.08;;;5.90;99.90;;;;;;4998363;28;20049;-83
2022/01/22 08:25:28;;;;;;;1.10;1.10;;;5.70;99.90;;;;;;4971883;28;20039;-85
2022/01/22 08:30:34;;;;;;;0.70;0.70;;;5.80;99.90;;;;;;5076420;28;20045;-83
2022/01/22 08:33:33;;;;;;;5.90;0.98;;;5.80;99.90;;;;;;4988055;28;20045;-81
2022/01/22 08:35:55;;;;;;;5.38;1.08;;;5.80;99.90;;;;;;4965022;28;20045;-82
2022/01/22 08:38:23;;;;;;;0.90;0.90;;;5.90;99.90;;;;;;4956864;28;20489;-84
2022/01/22 08:40:50;;;;;;;1.00;0.73;;;5.80;99.90;;;;;;4971691;28;20054;-84
2022/01/22 08:43:17;;;;;;;1.58;1.10;;;5.80;99.90;;;;;;4983073;28;20050;-83
2022/01/22 08:45:43;;;;;;;6.32;0.80;;;5.70;99.90;;;;;;4971385;28;20047;-83
2022/01/22 08:48:09;;;;;;;1.13;1.00;;;5.80;99.90;;;;;;4955857;28;20038;-83
2022/01/22 08:50:35;;;;;;;0.70;0.70;;;5.80;99.90;;;;;;4956195;28;20065;-82
2022/01/22 08:53:01;;;;;;;;;;;5.90;99.90;;;;;;5055423;28;20037;-82
2022/01/22 08:55:27;;;;;;;0.80;0.80;;;5.80;99.90;;;;;;4986011;28;19925;-81
2022/01/22 08:57:53;;;;;;;2.03;0.77;;;5.90;99.90;;;;;;4971606;28;21412;-83
2022/01/22 09:00:20;;;;;;;1.00;0.65;;;5.90;99.90;;;;;;4996258;28;20398;-82
2022/01/22 09:02:47;;;;;;;1.63;1.00;;;5.80;99.90;;;;;;4984941;28;20122;-80
2022/01/22 09:05:16;;;;;;;0.70;0.70;;;5.80;99.90;;;;;;4972383;28;20035;-83
2022/01/22 09:07:42;;;;;;;0.70;0.70;;;6.30;99.90;;;;;;5007286;28;20453;-82
2022/01/22 09:10:08;;;;;;;0.70;0.70;;;6.20;99.90;;;;;;5021951;28;20062;-83
2022/01/22 09:12:34;;;;;;;0.77;0.75;;;6.10;99.90;;;;;;4971450;28;20047;-82
2022/01/22 09:15:00;;;;;;;1.27;1.25;;;6.50;99.90;;;;;;4990346;28;20046;-80
2022/01/22 09:17:25;;;;;;;0.70;0.70;;;6.40;99.90;;;;;;5010306;28;20082;-83
2022/01/22 09:19:57;;;;;;;0.80;0.80;;;6.80;99.90;;;;;;4941309;28;20047;-82
2022/01/22 09:22:23;;;;;;;1.23;0.80;;;6.30;99.90;;;;;;4977478;28;20047;-81
2022/01/22 09:24:49;;;;;;;6.50;0.95;;;6.30;99.90;;;;;;4971471;28;20104;-80
2022/01/22 09:27:16;;;;;;;0.90;0.85;;;6.30;99.90;;;;;;5003928;28;20114;-81
2022/01/22 09:29:42;;;;;;;0.60;0.60;;;6.30;99.90;;;;;;4970241;28;20046;-85
2022/01/22 09:32:08;;;;;;;2.38;0.95;;;6.50;99.90;;;;;;4971073;28;20054;-82
2022/01/22 09:34:34;;;;;;;0.55;0.55;;;6.30;99.90;;;;;;4974256;28;20034;-81
2022/01/22 09:37:00;;;;;;;1.05;1.00;;;6.70;99.90;;;;;;5056683;28;20431;-82
2022/01/22 09:39:25;;;;;;;6.95;0.93;;;6.40;99.90;;;;;;4972187;28;20035;-80
2022/01/22 09:41:51;;;;;;;0.88;0.88;;;6.50;99.90;;;;;;4972999;28;20100;-80
2022/01/22 09:44:17;;;;;;;1.02;0.93;;;6.60;99.90;;;;;;4973767;28;20038;-77
2022/01/22 09:46:46;;;;;;;1.00;1.00;;;6.70;99.90;;;;;;4989931;28;20033;-80
2022/01/22 09:49:12;;;;;;;0.90;0.90;;;6.80;99.90;;;;;;4978029;28;20039;-80
2022/01/22 09:51:39;;;;;;;8.73;1.38;;;6.50;99.90;;;;;;4969701;28;20254;-81
2022/01/22 09:54:06;;;;;;;3.40;1.10;;;6.90;99.90;;;;;;5055076;28;20050;-80
2022/01/22 09:56:32;;;;;;;0.85;0.85;;;6.40;99.90;;;;;;4967569;28;20447;-81
2022/01/22 09:58:59;;;;;;;1.35;1.25;;;6.80;99.90;;;;;;4996218;28;20435;-80
2022/01/22 10:01:33;;;;;;;1.25;1.15;;;6.50;99.90;;;;;;4990798;28;20135;-81
2022/01/22 10:04:01;;;;;;;1.27;1.20;;;6.50;99.90;;;;;;4990836;28;20401;-82
2022/01/22 10:06:30;;;;;;;0.77;0.77;;;6.50;99.90;;;;;;4970909;28;20051;-82
2022/01/22 10:09:14;;;;;;;0.80;0.80;;;6.90;99.90;;;;;;5001218;28;20092;-80
2022/01/22 10:11:40;;;;;;;2.35;1.23;;;6.60;99.90;;;;;;4944670;28;20054;-79
2022/01/22 10:14:07;;;;;;;;;;;6.60;99.90;;;;;;4988545;28;20040;-82
2022/01/22 10:16:35;;;;;;;7.28;1.85;;;6.60;99.90;;;;;;4980295;28;20532;-80
2022/01/22 10:19:07;;;;;;;1.00;0.90;;;6.70;99.90;;;;;;4986034;28;20043;-81
2022/01/22 10:21:34;;;;;;;1.25;1.13;;;7.00;99.90;;;;;;4980276;28;20051;-84
2022/01/22 10:24:30;;;;;;;1.38;0.90;;;6.70;99.90;;;;;;4948042;28;20196;-80
2022/01/22 10:27:32;;;;;;;2.38;1.08;;;6.70;99.90;;;;;;4959270;28;20050;-81
2022/01/22 10:30:12;;;;;;;5.18;1.02;;;6.60;99.90;;;;;;4969197;28;20554;-78
2022/01/22 10:35:20;;;;;;;0.63;0.63;;;6.90;99.90;;;;;;5054596;28;20062;-78
2022/01/22 10:37:46;;;;;;;3.78;1.35;;;6.90;99.90;;;;;;4993543;28;20047;-81
2022/01/22 10:40:32;;;;;;;0.88;0.85;;;7.00;99.90;;;;;;4950039;28;20049;-81
2022/01/22 10:43:31;;;;;;;0.88;0.88;;;6.70;99.90;;;;;;4970354;28;20056;-81
2022/01/22 10:46:08;;;;;;;0.68;0.68;;;6.70;99.90;;;;;;4963019;28;20051;-79
2022/01/22 10:48:36;;;;;;;0.80;0.80;;;6.60;99.90;;;;;;5047523;28;20047;-82
2022/01/22 10:51:09;;;;;;;0.88;0.88;;;6.70;99.90;;;;;;4970324;28;20070;-81
2022/01/22 10:53:42;;;;;;;4.03;0.95;;;6.90;99.90;;;;;;4969575;28;20065;-80
2022/01/22 10:56:10;;;;;;;1.65;1.00;;;7.00;99.90;;;;;;4968793;28;20059;-80
2022/01/22 10:59:00;;;;;;;1.27;1.13;;;6.80;99.90;;;;;;4968504;28;20051;-81
2022/01/22 11:01:30;;;;;;;0.82;0.82;;;6.70;99.90;;;;;;4969599;28;20041;-81
2022/01/22 11:04:04;;;;;;;1.58;0.93;;;6.70;99.90;;;;;;4981313;28;20111;-78
2022/01/22 11:06:29;;;;;;;1.10;1.00;;;6.70;99.90;;;;;;4994766;28;20074;-79
2022/01/22 11:08:55;;;;;;;1.88;0.90;;;6.70;99.90;;;;;;4969124;28;20085;-80
2022/01/22 11:11:23;;;;;;;0.93;0.93;;;7.10;99.90;;;;;;4970807;28;20042;-80
2022/01/22 11:13:49;;;;;;;1.25;1.15;;;7.40;99.90;;;;;;4999164;28;20051;-80
2022/01/22 11:16:16;;;;;;;3.63;1.17;;;6.80;99.90;;;;;;4995755;28;20625;-80
2022/01/22 11:18:47;;;;;;;0.82;0.82;;;6.60;99.90;;;;;;4970273;28;20461;-79
2022/01/22 11:21:14;;;;;;;0.80;0.77;;;7.20;99.90;;;;;;4996200;28;20142;-80
2022/01/22 11:23:41;;;;;;;0.90;0.90;;;6.80;99.90;;;;;;4966003;28;20047;-79
2022/01/22 11:26:06;;;;;;;;;;;6.70;99.90;;;;;;4967926;28;20104;-79
2022/01/22 11:28:34;;;;;;;1.38;1.27;;;6.80;99.90;;;;;;4965870;28;19918;-78
2022/01/22 11:31:01;;;;;;;3.10;1.70;;;6.60;99.90;;;;;;4981988;28;20146;-79
2022/01/22 11:33:30;;;;;;;3.83;1.52;;;6.80;99.90;;;;;;4998993;28;20046;-79
2022/01/22 11:36:07;;;;;;;2.00;1.20;;;6.90;99.90;;;;;;5042243;28;20050;-80
2022/01/22 11:38:39;;;;;;;4.75;2.05;;;6.70;99.90;;;;;;4968500;28;20439;-80
2022/01/22 11:41:15;;;;;;;1.13;1.00;;;6.80;99.90;;;;;;4964154;28;20043;-80
2022/01/22 11:44:10;;;;;;;5.38;2.70;;;6.80;99.90;;;;;;5046348;28;20497;-81
2022/01/22 11:46:42;;;;;;;2.63;1.75;;;6.70;99.90;;;;;;4968410;28;20053;-80
2022/01/22 11:49:08;;;;;;;2.60;1.65;;;6.50;99.90;;;;;;4963039;28;20129;-80
2022/01/22 11:51:34;;;;;;;2.47;1.80;;;6.70;99.90;;;;;;4967879;28;20432;-78
2022/01/22 11:54:00;;;;;;;6.00;1.35;;;6.80;99.90;;;;;;4997567;28;20420;-80
2022/01/22 11:56:50;;;;;;;0.93;0.93;;;6.90;99.90;;;;;;4968484;28;20061;-79
2022/01/22 11:59:18;;;;;;;2.53;1.75;;;6.70;99.90;;;;;;4968342;28;20035;-79
2022/01/22 12:01:50;;;;;;;3.38;1.13;;;6.50;99.90;;;;;;4969995;28;20118;-80
2022/01/22 12:04:21;;;;;;;0.90;0.90;;;6.80;99.90;;;;;;4967652;28;20081;-81
2022/01/22 12:07:05;;;;;;;1.42;1.33;;;6.60;99.90;;;;;;4967209;28;20517;-81
2022/01/22 12:09:51;;;;;;;2.40;1.77;;;6.70;99.90;;;;;;5055791;28;20070;-80
2022/01/22 12:15:23;;;;;;;2.78;2.53;;;6.60;99.90;;;;;;4966716;28;20054;-82
2022/01/22 12:17:56;;;;;;;2.28;1.95;;;6.60;99.90;;;;;;4968882;28;20082;-80
2022/01/22 12:23:12;;;;;;;5.70;1.90;;;6.60;99.90;;;;;;4967137;28;20437;-84
2022/01/22 12:25:38;;;;;;;6.45;2.45;;;6.70;99.90;;;;;;4985746;28;20054;-81
2022/01/22 12:28:05;;;;;;;7.07;3.53;;;6.60;99.90;;;;;;4958048;28;20054;-80
2022/01/22 12:30:48;;;;;;;2.78;2.03;;;7.00;99.90;;;;;;4998845;28;20074;-82
2022/01/22 12:33:15;;;;;;;5.57;2.42;;;7.20;99.90;;;;;;4967665;28;20082;-82
2022/01/22 12:35:44;;;;;;;4.63;2.33;;;6.80;99.90;;;;;;4966369;28;20046;-80
2022/01/22 12:38:25;;;;;;;5.65;2.53;;;6.40;99.90;;;;;;5041044;28;20042;-80
2022/01/22 12:40:55;;;;;;;2.35;1.80;;;6.60;99.90;;;;;;4967574;28;20039;-82
2022/01/22 12:43:29;;;;;;;4.30;2.38;;;7.10;99.90;;;;;;4964841;28;20035;-81
2022/01/22 12:45:58;;;;;;;6.85;3.40;;;6.60;99.90;;;;;;4968358;28;20403;-81
2022/01/22 12:48:29;;;;;;;8.75;3.17;;;6.70;99.90;;;;;;4967092;28;20491;-82
2022/01/22 12:51:03;;;;;;;2.58;2.17;;;6.50;99.90;;;;;;5041678;28;20359;-81
2022/01/22 12:53:30;;;;;;;3.67;2.58;;;6.60;99.90;;;;;;4997709;28;20107;-80
2022/01/22 12:58:27;;;;;;;8.73;3.53;;;6.70;99.90;;;;;;4991332;28;20058;-79
2022/01/22 13:01:33;;;;;;;1.73;1.50;;;7.50;99.90;;;;;;5010307;28;20073;-79
2022/01/22 13:04:02;;;;;;;3.05;2.60;;;6.80;99.90;;;;;;4982082;28;20125;-80
2022/01/22 13:06:46;;;;;;;4.47;2.05;;;6.60;99.90;;;;;;5002952;28;20488;-80
2022/01/22 13:09:13;;;;;;;2.83;1.27;;;6.70;99.90;;;;;;4964293;28;20047;-80
2022/01/22 13:11:48;;;;;;;1.92;1.70;;;6.60;99.90;;;;;;5022976;28;20480;-80
2022/01/22 13:14:34;;;;;;;2.92;2.03;;;6.70;99.90;;;;;;4969672;28;20050;-79
2022/01/22 13:16:59;;;;;;;3.60;1.67;;;6.90;99.90;;;;;;4969368;28;20066;-80
2022/01/22 13:19:29;;;;;;;3.55;1.63;;;6.50;99.90;;;;;;4976144;28;20114;-78
2022/01/22 13:22:01;;;;;;;1.67;1.38;;;6.50;99.90;;;;;;4971302;28;20050;-79
2022/01/22 13:24:28;;;;;;;2.92;1.90;;;6.60;99.90;;;;;;5000352;28;20054;-79
2022/01/22 13:27:00;;;;;;;6.63;2.38;;;6.70;99.90;;;;;;4982493;28;20046;-80
2022/01/22 13:29:33;;;;;;;6.15;2.33;;;6.60;99.90;;;;;;4972423;28;20059;-80
2022/01/22 13:32:09;;;;;;;2.75;1.83;;;6.70;99.90;;;;;;4983079;28;20043;-78
2022/01/22 13:49:05;;;;;;;2.40;1.63;;;6.40;99.90;;;;;;4989575;28;20046;-81
2022/01/22 13:51:34;;;;;;;1.58;1.40;;;6.50;99.90;;;;;;4968715;28;20126;-78
2022/01/22 13:54:01;;;;;;;2.15;1.70;;;6.80;99.90;;;;;;4970024;28;20113;-79
2022/01/22 13:56:55;;;;;;;1.80;1.02;;;6.30;99.90;;;;;;5029479;28;20374;-79
2022/01/22 13:59:34;;;;;;;2.10;1.52;;;6.30;99.90;;;;;;5038309;28;20082;-79
2022/01/22 14:02:08;;;;;;;1.85;1.70;;;6.70;99.90;;;;;;4969615;28;20043;-81
2022/01/22 14:04:39;;;;;;;2.80;1.92;;;6.70;99.90;;;;;;4970220;28;20047;-79
2022/01/22 14:07:13;;;;;;;7.85;2.03;;;6.20;99.90;;;;;;4966483;28;20412;-78
2022/01/22 14:10:01;;;;;;;5.68;1.80;;;6.40;99.90;;;;;;4979257;28;20096;-81
2022/01/22 14:12:37;;;;;;;3.08;1.73;;;6.30;99.90;;;;;;4951009;28;20051;-80
2022/01/22 14:15:14;;;;;;;7.57;1.50;;;6.20;99.90;;;;;;4953035;28;20085;-80
2022/01/22 14:20:33;;;;;;;2.80;2.00;;;6.20;99.90;;;;;;5006828;28;20062;-81
2022/01/22 14:23:32;;;;;;;2.90;1.95;;;6.70;99.90;;;;;;4958490;28;20130;-80
2022/01/22 14:26:06;;;;;;;7.10;2.25;;;6.30;99.90;;;;;;4967183;28;20093;-80
2022/01/22 14:28:48;;;;;;;7.53;1.95;;;6.60;99.90;;;;;;4971497;28;20062;-81
2022/01/22 14:31:26;;;;;;;4.90;2.08;;;6.50;99.90;;;;;;4972895;28;20058;-80
2022/01/22 14:33:54;;;;;;;2.70;1.42;;;6.30;99.90;;;;;;4969515;28;20047;-81
2022/01/22 14:36:24;;;;;;;0.88;0.88;;;6.20;99.90;;;;;;4958763;28;20074;-82
2022/01/22 14:38:56;;;;;;;2.53;1.90;;;6.50;99.90;;;;;;5037776;28;20043;-83
2022/01/22 14:44:26;;;;;;;3.60;1.98;;;6.20;99.90;;;;;;5026905;28;20928;-82
2022/01/22 14:47:08;;;;;;;2.05;1.70;;;6.80;99.90;;;;;;4970238;28;20118;-80
2022/01/22 14:49:34;;;;;;;1.95;1.58;;;6.00;99.90;;;;;;5041922;28;20049;-80
2022/01/22 14:52:01;;;;;;;6.90;1.63;;;6.40;99.90;;;;;;4969920;28;20043;-80
2022/01/22 14:54:32;;;;;;;3.58;1.50;;;6.10;99.90;;;;;;5000335;28;20047;-80
2022/01/22 14:56:57;;;;;;;4.53;1.40;;;6.40;99.90;;;;;;5053931;28;20049;-79
2022/01/22 14:59:23;;;;;;;4.20;2.10;;;6.10;99.90;;;;;;4995310;28;20042;-82
2022/01/22 15:01:49;;;;;;;4.35;2.30;;;6.20;99.90;;;;;;4969607;28;20035;-80
2022/01/22 15:04:15;;;;;;;;;;;6.00;99.90;;;;;;4960987;28;20042;-81
2022/01/22 15:06:41;;;;;;;1.13;1.00;;;6.10;99.90;;;;;;4986035;28;19918;-80
2022/01/22 15:09:07;;;;;;;2.78;1.42;;;6.20;99.90;;;;;;4968183;28;20408;-80
2022/01/22 15:11:34;;;;;;;2.58;1.10;;;6.10;99.90;;;;;;4987063;28;20061;-81
2022/01/22 15:14:04;;;;;;;2.05;1.20;;;6.10;99.90;;;;;;4985228;28;20053;-81